createdAt,value
2022-08-05T00:01:27.644Z,86.49
2022-08-05T00:04:33.288Z,87.00
2022-08-05T00:08:00.060Z,88.13
2022-08-05T00:11:03.734Z,87.53
2022-08-05T00:14:13.104Z,88.52
2022-08-05T00:17:21.986Z,88.48
2022-08-05T00:20:29.128Z,89.01
2022-08-05T00:23:46.431Z,89.38
2022-08-05T00:26:52.075Z,89.65
2022-08-05T00:29:58.024Z,90.05
2022-08-05T00:33:05.630Z,89.95
2022-08-05T00:37:11.941Z,89.57
2022-08-05T00:39:58.435Z,87.57
2022-08-05T00:43:07.679Z,87.06
2022-08-05T00:46:12.315Z,85.81
2022-08-05T00:49:20.922Z,85.95
2022-08-05T00:52:28.620Z,85.51
2022-08-05T00:55:34.233Z,85.88
2022-08-05T00:58:47.775Z,84.63
2022-08-05T01:01:52.432Z,83.12
2022-08-05T01:04:57.019Z,82.00
2022-08-05T01:08:30.393Z,81.14
2022-08-05T01:11:37.415Z,78.90
2022-08-05T01:14:53.406Z,78.70
2022-08-05T01:18:06.709Z,79.16
2022-08-05T01:21:26.574Z,72.61
2022-08-05T01:24:51.977Z,66.57
2022-08-05T01:28:45.340Z,65.16
2022-08-05T01:31:55.630Z,64.81
2022-08-05T01:35:03.915Z,64.67
2022-08-05T01:38:27.120Z,64.80
2022-08-05T01:41:38.050Z,67.17
2022-08-05T01:44:53.835Z,70.58
2022-08-05T01:48:04.023Z,70.26
2022-08-05T01:51:17.157Z,71.32
2022-08-05T01:54:25.651Z,71.34
2022-08-05T01:58:12.555Z,70.04
2022-08-05T02:01:03.978Z,71.21
2022-08-05T02:04:10.773Z,70.76
2022-08-05T02:07:22.393Z,70.38
2022-08-05T02:10:35.720Z,69.53
2022-08-05T02:13:53.834Z,69.33
2022-08-05T02:17:29.674Z,69.27
2022-08-05T02:20:58.787Z,70.60
2022-08-05T02:24:10.622Z,71.41
2022-08-05T02:27:17.872Z,70.27
2022-08-05T02:30:54.137Z,68.82
2022-08-05T02:34:05.350Z,68.53
2022-08-05T02:37:11.532Z,67.71
2022-08-05T02:40:18.349Z,68.38
2022-08-05T02:43:24.285Z,69.87
2022-08-05T02:46:30.430Z,68.76
2022-08-05T02:49:42.790Z,70.20
2022-08-05T02:52:48.667Z,70.06
2022-08-05T02:56:00.318Z,70.91
2022-08-05T02:59:07.606Z,69.60
2022-08-05T03:02:14.657Z,69.61
2022-08-05T03:05:21.956Z,70.39
2022-08-05T03:08:45.905Z,71.08
2022-08-05T03:11:58.323Z,70.15
2022-08-05T03:15:03.956Z,70.07
2022-08-05T03:18:11.666Z,68.68
2022-08-05T03:21:16.881Z,69.71
2022-08-05T03:24:29.329Z,70.32
2022-08-05T03:27:57.986Z,69.74
2022-08-05T03:31:02.119Z,70.07
2022-08-05T03:34:06.890Z,69.67
2022-08-05T03:37:15.507Z,70.45
2022-08-05T03:40:24.375Z,69.92
2022-08-05T03:44:09.760Z,69.40
2022-08-05T03:47:00.868Z,68.64
2022-08-05T03:50:10.155Z,69.71
2022-08-05T03:55:54.208Z,69.52
2022-08-05T03:56:47.757Z,70.31
2022-08-05T03:59:59.666Z,69.89
2022-08-05T04:03:28.356Z,70.58
2022-08-05T04:06:36.285Z,70.67
2022-08-05T04:09:53.111Z,70.20
2022-08-05T04:12:59.181Z,70.96
2022-08-05T04:16:05.031Z,69.19
2022-08-05T04:19:14.129Z,70.40
2022-08-05T04:22:20.407Z,70.99
2022-08-05T04:25:56.912Z,70.00
2022-08-05T04:28:52.106Z,70.17
2022-08-05T04:31:56.994Z,70.58
2022-08-05T04:35:01.829Z,71.17
2022-08-05T04:38:07.726Z,71.97
2022-08-05T04:41:13.959Z,72.93
2022-08-05T04:44:21.332Z,72.02
2022-08-05T04:47:38.584Z,72.44
2022-08-05T04:51:03.532Z,72.58
2022-08-05T04:54:15.637Z,73.62
2022-08-05T04:57:21.092Z,73.28
2022-08-05T05:00:36.588Z,72.74
2022-08-05T05:03:41.793Z,72.28
2022-08-05T05:06:49.258Z,72.68
2022-08-05T05:09:58.217Z,73.17
2022-08-05T05:13:04.926Z,73.32
2022-08-05T05:16:09.915Z,73.60
2022-08-05T05:19:23.453Z,74.10
2022-08-05T05:22:31.135Z,74.43
2022-08-05T05:25:40.983Z,74.29
2022-08-05T05:28:46.271Z,74.47
2022-08-05T05:31:51.087Z,75.86
2022-08-05T05:34:56.089Z,76.03
2022-08-05T05:38:05.840Z,75.88
2022-08-05T05:41:16.375Z,76.38
2022-08-05T05:44:37.554Z,76.92
2022-08-05T05:48:06.949Z,77.21
2022-08-05T05:51:15.420Z,77.91
2022-08-05T05:54:20.978Z,76.90
2022-08-05T05:57:25.871Z,76.88
2022-08-05T06:00:47.433Z,78.34
2022-08-05T06:04:01.819Z,78.39
2022-08-05T06:07:08.448Z,79.27
2022-08-05T06:10:16.132Z,79.46
2022-08-05T06:13:23.672Z,80.29
2022-08-05T06:16:36.755Z,80.35
2022-08-05T06:19:42.386Z,81.03
2022-08-05T06:23:01.045Z,82.85
2022-08-05T06:26:13.683Z,86.21
2022-08-05T06:29:49.416Z,87.41
2022-08-05T06:32:52.305Z,88.39
2022-08-05T06:36:07.389Z,90.71
2022-08-05T06:39:14.787Z,90.76
2022-08-05T06:42:19.493Z,90.75
2022-08-05T06:45:44.548Z,90.45
2022-08-05T06:48:56.668Z,86.84
2022-08-05T06:52:03.682Z,88.48
2022-08-05T06:55:08.913Z,88.39
2022-08-05T06:58:29.186Z,88.21
2022-08-05T07:01:40.705Z,88.64
2022-08-05T07:04:46.906Z,88.70
2022-08-05T07:07:52.635Z,88.49
2022-08-05T07:10:58.274Z,89.67
2022-08-05T07:14:30.117Z,90.23
2022-08-05T07:17:59.046Z,90.69
2022-08-05T07:21:04.789Z,90.33
2022-08-05T07:24:11.949Z,90.72
2022-08-05T07:27:16.399Z,90.93
2022-08-05T07:30:27.292Z,90.77
2022-08-05T07:33:37.491Z,90.99
2022-08-05T07:36:44.529Z,90.69
2022-08-05T07:40:27.126Z,91.66
2022-08-05T07:43:20.801Z,92.16
2022-08-05T07:46:28.082Z,91.89
2022-08-05T07:49:32.727Z,91.49
2022-08-05T07:52:48.372Z,90.67
2022-08-05T07:56:06.350Z,89.96
2022-08-05T07:59:23.199Z,90.81
2022-08-05T08:03:14.050Z,91.49
2022-08-05T08:06:01.800Z,91.64
2022-08-05T08:09:07.175Z,91.36
2022-08-05T08:12:33.627Z,91.59
2022-08-05T08:16:49.850Z,92.03
2022-08-05T08:19:03.613Z,91.57
2022-08-05T08:22:11.999Z,91.34
2022-08-05T08:25:26.512Z,90.99
2022-08-05T08:28:36.964Z,91.17
2022-08-05T08:31:48.511Z,91.01
2022-08-05T08:34:53.722Z,91.34
2022-08-05T08:38:02.235Z,90.85
2022-08-05T08:41:10.394Z,91.53
2022-08-05T08:45:24.181Z,91.31
2022-08-05T08:48:11.404Z,90.87
2022-08-05T08:51:22.856Z,90.99
2022-08-05T08:54:38.213Z,90.78
2022-08-05T08:57:58.290Z,90.84
2022-08-05T09:01:04.061Z,90.90
2022-08-05T09:04:10.757Z,90.92
2022-08-05T09:07:19.610Z,90.11
2022-08-05T09:10:34.193Z,90.44
2022-08-05T09:14:00.946Z,90.14
2022-08-05T09:17:40.289Z,90.42
2022-08-05T09:20:37.836Z,90.17
2022-08-05T09:23:45.896Z,90.44
2022-08-05T09:26:58.772Z,90.22
2022-08-05T09:30:06.564Z,90.70
2022-08-05T09:33:15.330Z,90.92
2022-08-05T09:36:27.843Z,91.04
2022-08-05T09:39:45.234Z,91.21
2022-08-05T09:42:50.908Z,91.99
2022-08-05T09:46:06.828Z,91.25
2022-08-05T09:49:54.643Z,91.36
2022-08-05T09:52:59.756Z,91.76
2022-08-05T09:56:12.976Z,91.11
2022-08-05T09:59:18.326Z,91.69
2022-08-05T10:02:40.863Z,91.99
2022-08-05T10:05:47.419Z,92.29
2022-08-05T10:08:55.663Z,92.77
2022-08-05T10:12:30.819Z,93.09
2022-08-05T10:15:41.376Z,93.76
2022-08-05T10:18:48.290Z,93.55
2022-08-05T10:21:53.428Z,94.42
2022-08-05T10:24:58.334Z,94.67
2022-08-05T10:28:13.104Z,94.32
2022-08-05T10:32:52.877Z,94.71
2022-08-05T10:34:47.723Z,95.18
2022-08-05T10:37:55.011Z,95.27
2022-08-05T10:41:13.807Z,95.03
2022-08-05T10:44:23.792Z,95.16
2022-08-05T10:47:35.233Z,95.51
2022-08-05T10:51:05.159Z,96.05
2022-08-05T10:55:06.843Z,95.72
2022-08-05T10:58:15.567Z,96.23
2022-08-05T11:01:55.521Z,95.59
2022-08-05T11:05:11.521Z,95.79
2022-08-05T11:08:36.584Z,96.53
2022-08-05T11:11:44.619Z,98.06
2022-08-05T11:15:19.217Z,98.16
2022-08-05T11:18:32.455Z,99.30
2022-08-05T11:21:40.986Z,99.87
2022-08-05T11:26:06.074Z,100.00
2022-08-05T11:28:56.966Z,100.00
2022-08-05T11:32:21.098Z,100.00
2022-08-05T11:36:08.102Z,100.00
2022-08-05T11:39:14.428Z,100.00
2022-08-05T11:42:28.146Z,100.00
2022-08-05T11:46:15.611Z,100.00
2022-08-05T11:48:58.579Z,100.00
2022-08-05T11:52:11.069Z,100.00
2022-08-05T11:55:16.401Z,100.00
2022-08-05T11:58:52.845Z,100.00
2022-08-05T12:02:06.977Z,100.00
2022-08-05T12:05:36.125Z,100.00
2022-08-05T12:08:51.284Z,100.00
2022-08-05T12:11:56.307Z,100.00
2022-08-05T12:15:00.822Z,100.00
2022-08-05T12:18:10.668Z,100.00
2022-08-05T12:21:21.081Z,100.00
2022-08-05T12:24:28.214Z,100.00
2022-08-05T12:27:36.446Z,100.00
2022-08-05T12:31:02.105Z,100.00
2022-08-05T12:34:09.460Z,100.00
2022-08-05T12:37:29.948Z,100.00
2022-08-05T12:40:36.829Z,100.00
2022-08-05T12:44:14.505Z,100.00
2022-08-05T12:47:33.800Z,100.00
2022-08-05T12:50:39.128Z,100.00
2022-08-05T12:53:47.379Z,100.00
2022-08-05T12:57:09.176Z,100.00
2022-08-05T13:02:03.682Z,100.00
2022-08-05T13:03:51.626Z,100.00
2022-08-05T13:06:58.171Z,100.00
2022-08-05T13:10:11.192Z,100.00
2022-08-05T13:14:04.841Z,100.00
2022-08-05T13:16:56.877Z,100.00
2022-08-05T13:20:20.343Z,100.00
2022-08-05T13:23:26.560Z,100.00
2022-08-05T13:26:31.924Z,100.00
2022-08-05T13:29:37.788Z,100.00
2022-08-05T13:32:50.420Z,100.00
2022-08-05T13:35:56.230Z,100.00
2022-08-05T13:39:24.766Z,100.00
2022-08-05T13:42:32.875Z,100.00
2022-08-05T13:45:43.067Z,100.00
2022-08-05T13:48:57.600Z,100.00
2022-08-05T13:52:17.126Z,100.00
2022-08-05T13:55:41.762Z,100.00
2022-08-05T13:58:52.910Z,99.60
2022-08-05T14:02:00.500Z,99.58
2022-08-05T14:05:12.125Z,100.00
2022-08-05T14:08:27.517Z,100.00
2022-08-05T14:11:33.159Z,100.00
2022-08-05T14:14:58.314Z,100.00
2022-08-05T14:18:04.024Z,99.75
2022-08-05T14:22:07.065Z,100.00
2022-08-05T14:24:34.078Z,100.00
2022-08-05T14:27:40.386Z,100.00
2022-08-05T14:30:52.316Z,100.00
2022-08-05T14:34:00.590Z,100.00
2022-08-05T14:37:06.294Z,99.53
2022-08-05T14:40:14.069Z,99.56
2022-08-05T14:43:22.030Z,98.81
2022-08-05T14:46:46.587Z,97.82
2022-08-05T14:49:58.546Z,95.86
2022-08-05T14:53:05.734Z,97.87
2022-08-05T14:56:11.083Z,95.97
2022-08-05T14:59:16.805Z,97.18
2022-08-05T15:02:21.318Z,96.03
2022-08-05T15:05:29.684Z,97.14
2022-08-05T15:08:58.008Z,98.56
2022-08-05T15:11:59.339Z,100.00
2022-08-05T15:15:13.610Z,100.00
2022-08-05T15:18:20.239Z,100.00
2022-08-05T15:21:25.216Z,99.43
2022-08-05T15:24:35.278Z,100.00
2022-08-05T15:27:52.264Z,100.00
2022-08-05T15:30:59.461Z,99.65
2022-08-05T15:34:31.715Z,100.00
2022-08-05T15:38:32.636Z,100.00
2022-08-05T15:41:21.144Z,99.41
2022-08-05T15:44:21.589Z,99.38
2022-08-05T15:47:26.772Z,98.84
2022-08-05T15:50:31.731Z,99.53
2022-08-05T15:53:50.951Z,99.79
2022-08-05T15:56:56.152Z,100.00
2022-08-05T16:00:02.411Z,100.00
2022-08-05T16:03:09.765Z,100.00
2022-08-05T16:06:14.074Z,100.00
2022-08-05T16:09:25.792Z,100.00
2022-08-05T16:12:30.381Z,100.00
2022-08-05T16:15:35.645Z,100.00
2022-08-05T16:18:52.725Z,100.00
2022-08-05T16:21:59.986Z,100.00
2022-08-05T16:25:09.456Z,100.00
2022-08-05T16:28:15.616Z,100.00
2022-08-05T16:31:19.981Z,100.00
2022-08-05T16:34:26.282Z,100.00
2022-08-05T16:38:02.683Z,100.00
2022-08-05T16:40:59.659Z,100.00
2022-08-05T16:44:13.512Z,100.00
2022-08-05T16:47:28.727Z,100.00
2022-08-05T16:50:41.021Z,100.00
2022-08-05T16:54:04.852Z,100.00
2022-08-05T16:57:19.441Z,100.00
2022-08-05T17:00:34.693Z,100.00
2022-08-05T17:03:42.200Z,100.00
2022-08-05T17:06:53.021Z,100.00
2022-08-05T17:09:59.321Z,100.00
2022-08-05T17:13:04.047Z,100.00
2022-08-05T17:16:29.661Z,100.00
2022-08-05T17:19:34.177Z,100.00
2022-08-05T17:22:39.097Z,100.00
2022-08-05T17:25:43.511Z,100.00
2022-08-05T17:28:47.865Z,100.00
2022-08-05T17:31:59.000Z,100.00
2022-08-05T17:35:05.773Z,100.00
2022-08-05T17:38:12.246Z,100.00
2022-08-05T17:42:16.545Z,100.00
2022-08-05T17:44:50.783Z,100.00
2022-08-05T17:47:56.684Z,100.00
2022-08-05T17:51:01.837Z,100.00
2022-08-05T17:54:14.010Z,100.00
2022-08-05T17:57:18.558Z,100.00
2022-08-05T18:00:28.597Z,100.00
2022-08-05T18:03:58.627Z,100.00
2022-08-05T18:07:01.158Z,100.00
2022-08-05T18:10:07.310Z,100.00
2022-08-05T18:13:16.311Z,100.00
2022-08-05T18:16:23.508Z,100.00
2022-08-05T18:19:28.272Z,100.00
2022-08-05T18:22:36.257Z,100.00
2022-08-05T18:25:59.428Z,100.00
2022-08-05T18:29:04.507Z,100.00
2022-08-05T18:32:15.160Z,100.00
2022-08-05T18:35:49.654Z,100.00
2022-08-05T18:38:46.035Z,100.00
2022-08-05T18:41:57.879Z,100.00
2022-08-05T18:45:07.640Z,100.00
2022-08-05T18:48:30.895Z,100.00
2022-08-05T18:52:04.848Z,100.00
2022-08-05T18:55:12.552Z,100.00
2022-08-05T18:58:18.602Z,100.00
2022-08-05T19:01:33.286Z,100.00
2022-08-05T19:05:01.398Z,100.00
2022-08-05T19:08:13.600Z,100.00
2022-08-05T19:11:28.594Z,100.00
2022-08-05T19:15:00.581Z,100.00
2022-08-05T19:18:13.638Z,100.00
2022-08-05T19:21:34.186Z,100.00
2022-08-05T19:24:39.717Z,100.00
2022-08-05T19:28:01.384Z,100.00
2022-08-05T19:31:06.363Z,100.00
2022-08-05T19:34:11.678Z,100.00
2022-08-05T19:37:29.933Z,100.00
2022-08-05T19:40:40.233Z,100.00
2022-08-05T19:44:05.700Z,100.00
2022-08-05T19:47:15.300Z,100.00
2022-08-05T19:50:24.337Z,100.00
2022-08-05T19:54:04.208Z,100.00
2022-08-05T19:56:56.054Z,100.00
2022-08-05T20:00:04.497Z,100.00
2022-08-05T20:03:15.737Z,100.00
2022-08-05T20:06:28.527Z,100.00
2022-08-05T20:09:54.673Z,100.00
2022-08-05T20:12:59.715Z,100.00
2022-08-05T20:16:04.429Z,100.00
2022-08-05T20:19:09.350Z,100.00
2022-08-05T20:22:14.027Z,100.00
2022-08-05T20:25:18.890Z,100.00
2022-08-05T20:28:28.134Z,100.00
2022-08-05T20:31:42.969Z,100.00
2022-08-05T20:34:57.889Z,100.00
2022-08-05T20:38:07.558Z,100.00
2022-08-05T20:41:15.514Z,100.00
2022-08-05T20:44:30.612Z,100.00
2022-08-05T20:47:40.146Z,100.00
2022-08-05T20:50:45.559Z,100.00
2022-08-05T20:53:56.896Z,100.00
2022-08-05T20:57:03.415Z,100.00
2022-08-05T21:00:34.923Z,100.00
2022-08-05T21:03:35.554Z,100.00
2022-08-05T21:06:45.676Z,100.00
2022-08-05T21:09:53.798Z,100.00
2022-08-05T21:13:08.874Z,100.00
2022-08-05T21:16:20.714Z,100.00
2022-08-05T21:19:28.401Z,100.00
2022-08-05T21:22:33.212Z,100.00
2022-08-05T21:25:37.987Z,100.00
2022-08-05T21:28:48.049Z,100.00
2022-08-05T21:31:56.573Z,100.00
2022-08-05T21:35:16.795Z,100.00
2022-08-05T21:38:23.465Z,100.00
2022-08-05T21:41:32.888Z,100.00
2022-08-05T21:44:38.689Z,100.00
2022-08-05T21:47:56.628Z,100.00
2022-08-05T21:51:02.716Z,100.00
2022-08-05T21:54:31.091Z,100.00
2022-08-05T21:57:42.449Z,100.00
2022-08-05T22:00:51.204Z,100.00
2022-08-05T22:03:56.409Z,100.00
2022-08-05T22:07:02.533Z,100.00
2022-08-05T22:10:09.650Z,100.00
2022-08-05T22:14:19.431Z,100.00
2022-08-05T22:16:51.740Z,100.00
2022-08-05T22:20:03.433Z,100.00
2022-08-05T22:24:01.016Z,100.00
2022-08-05T22:27:19.568Z,100.00
2022-08-05T22:30:24.479Z,99.06
2022-08-05T22:33:56.860Z,99.98
2022-08-05T22:36:54.396Z,99.62
2022-08-05T22:39:59.333Z,95.14
2022-08-05T22:43:04.376Z,95.49
2022-08-05T22:46:13.090Z,93.90
2022-08-05T22:50:17.596Z,96.60
2022-08-05T22:52:42.573Z,97.83
2022-08-05T22:55:57.250Z,96.04
2022-08-05T22:59:43.812Z,92.20
2022-08-05T23:02:30.159Z,91.83
2022-08-05T23:05:36.109Z,92.01
2022-08-05T23:08:41.224Z,91.81
2022-08-05T23:11:49.215Z,91.18
2022-08-05T23:14:55.016Z,92.61
2022-08-05T23:18:03.277Z,90.43
2022-08-05T23:21:10.081Z,88.55
2022-08-05T23:24:16.685Z,88.46
2022-08-05T23:27:24.207Z,87.96
2022-08-05T23:30:33.606Z,87.53
2022-08-05T23:34:05.322Z,84.92
2022-08-05T23:37:09.860Z,79.95
2022-08-05T23:40:15.974Z,79.56
2022-08-05T23:44:05.366Z,81.72
2022-08-05T23:46:50.931Z,81.13
2022-08-05T23:49:55.710Z,81.25
2022-08-05T23:53:00.973Z,82.65
2022-08-05T23:56:08.633Z,80.08
2022-08-05T23:59:14.011Z,81.76
